sensor_id;sensor_type;location;lat;lon;timestamp;P1;durP1;ratioP1;P2;durP2;ratioP2
59089;SDS011;44878;50.102;18.982;2022-12-07T00:01:41;23.20;;;18.03;;
59089;SDS011;44878;50.102;18.982;2022-12-07T00:04:12;22.38;;;17.50;;
59089;SDS011;44878;50.102;18.982;2022-12-07T00:06:40;22.97;;;18.30;;
59089;SDS011;44878;50.102;18.982;2022-12-07T00:09:10;20.83;;;17.13;;
59089;SDS011;44878;50.102;18.982;2022-12-07T00:11:38;23.40;;;17.90;;
59089;SDS011;44878;50.102;18.982;2022-12-07T00:14:10;22.77;;;18.03;;
59089;SDS011;44878;50.102;18.982;2022-12-07T00:16:41;21.43;;;16.53;;
59089;SDS011;44878;50.102;18.982;2022-12-07T00:19:09;21.33;;;15.20;;
59089;SDS011;44878;50.102;18.982;2022-12-07T00:21:36;20.33;;;15.85;;
59089;SDS011;44878;50.102;18.982;2022-12-07T00:24:03;20.20;;;15.43;;
59089;SDS011;44878;50.102;18.982;2022-12-07T00:26:31;20.77;;;14.88;;
59089;SDS011;44878;50.102;18.982;2022-12-07T00:29:06;18.40;;;15.20;;
59089;SDS011;44878;50.102;18.982;2022-12-07T00:31:38;21.37;;;15.47;;
59089;SDS011;44878;50.102;18.982;2022-12-07T00:34:11;20.93;;;16.63;;
59089;SDS011;44878;50.102;18.982;2022-12-07T00:36:39;19.10;;;16.23;;
59089;SDS011;44878;50.102;18.982;2022-12-07T00:39:05;19.93;;;16.83;;
59089;SDS011;44878;50.102;18.982;2022-12-07T00:41:31;18.80;;;15.47;;
59089;SDS011;44878;50.102;18.982;2022-12-07T00:44:00;21.37;;;16.27;;
59089;SDS011;44878;50.102;18.982;2022-12-07T00:46:29;21.93;;;17.43;;
59089;SDS011;44878;50.102;18.982;2022-12-07T00:48:55;25.50;;;17.97;;
59089;SDS011;44878;50.102;18.982;2022-12-07T00:51:23;21.63;;;16.80;;
59089;SDS011;44878;50.102;18.982;2022-12-07T00:53:51;21.20;;;17.43;;
59089;SDS011;44878;50.102;18.982;2022-12-07T00:56:22;23.30;;;16.93;;
59089;SDS011;44878;50.102;18.982;2022-12-07T00:58:53;20.83;;;16.73;;
59089;SDS011;44878;50.102;18.982;2022-12-07T01:01:24;23.17;;;18.40;;
59089;SDS011;44878;50.102;18.982;2022-12-07T01:03:52;21.40;;;17.13;;
59089;SDS011;44878;50.102;18.982;2022-12-07T01:06:22;23.67;;;18.03;;
59089;SDS011;44878;50.102;18.982;2022-12-07T01:08:49;23.50;;;18.50;;
59089;SDS011;44878;50.102;18.982;2022-12-07T01:11:16;21.97;;;17.93;;
59089;SDS011;44878;50.102;18.982;2022-12-07T01:13:44;24.37;;;18.37;;
59089;SDS011;44878;50.102;18.982;2022-12-07T01:16:12;21.80;;;18.10;;
59089;SDS011;44878;50.102;18.982;2022-12-07T01:18:40;24.83;;;18.83;;
59089;SDS011;44878;50.102;18.982;2022-12-07T01:21:11;21.50;;;17.80;;
59089;SDS011;44878;50.102;18.982;2022-12-07T01:23:39;24.73;;;18.03;;
59089;SDS011;44878;50.102;18.982;2022-12-07T01:26:06;25.40;;;20.37;;
59089;SDS011;44878;50.102;18.982;2022-12-07T01:28:36;22.27;;;18.90;;
59089;SDS011;44878;50.102;18.982;2022-12-07T01:31:04;24.47;;;19.20;;
59089;SDS011;44878;50.102;18.982;2022-12-07T01:33:33;25.33;;;20.47;;
59089;SDS011;44878;50.102;18.982;2022-12-07T01:36:05;22.50;;;18.87;;
59089;SDS011;44878;50.102;18.982;2022-12-07T01:38:32;23.70;;;19.17;;
59089;SDS011;44878;50.102;18.982;2022-12-07T01:41:01;26.50;;;21.57;;
59089;SDS011;44878;50.102;18.982;2022-12-07T01:43:29;27.67;;;21.03;;
59089;SDS011;44878;50.102;18.982;2022-12-07T01:45:56;23.10;;;20.40;;
59089;SDS011;44878;50.102;18.982;2022-12-07T01:48:27;27.07;;;21.17;;
59089;SDS011;44878;50.102;18.982;2022-12-07T01:50:59;26.10;;;21.43;;
59089;SDS011;44878;50.102;18.982;2022-12-07T01:53:29;27.47;;;21.87;;
59089;SDS011;44878;50.102;18.982;2022-12-07T01:55:59;25.80;;;21.20;;
59089;SDS011;44878;50.102;18.982;2022-12-07T01:58:29;27.53;;;22.70;;
59089;SDS011;44878;50.102;18.982;2022-12-07T02:00:55;25.90;;;21.47;;
59089;SDS011;44878;50.102;18.982;2022-12-07T02:08:15;27.67;;;22.23;;
59089;SDS011;44878;50.102;18.982;2022-12-07T02:10:43;30.80;;;24.80;;
59089;SDS011;44878;50.102;18.982;2022-12-07T02:13:13;27.10;;;23.30;;
59089;SDS011;44878;50.102;18.982;2022-12-07T02:26:23;26.30;;;21.83;;
59089;SDS011;44878;50.102;18.982;2022-12-07T02:29:37;26.57;;;21.87;;
59089;SDS011;44878;50.102;18.982;2022-12-07T02:32:12;27.60;;;23.47;;
59089;SDS011;44878;50.102;18.982;2022-12-07T02:34:45;24.40;;;21.30;;
59089;SDS011;44878;50.102;18.982;2022-12-07T02:37:21;27.10;;;22.60;;
59089;SDS011;44878;50.102;18.982;2022-12-07T02:39:54;24.83;;;22.10;;
59089;SDS011;44878;50.102;18.982;2022-12-07T02:42:33;29.37;;;25.33;;
59089;SDS011;44878;50.102;18.982;2022-12-07T02:45:03;28.90;;;24.30;;
59089;SDS011;44878;50.102;18.982;2022-12-07T02:47:31;26.80;;;23.27;;
59089;SDS011;44878;50.102;18.982;2022-12-07T02:50:02;25.17;;;22.03;;
59089;SDS011;44878;50.102;18.982;2022-12-07T02:52:31;26.07;;;22.70;;
59089;SDS011;44878;50.102;18.982;2022-12-07T02:54:57;26.17;;;23.37;;
59089;SDS011;44878;50.102;18.982;2022-12-07T02:57:27;25.87;;;23.07;;
59089;SDS011;44878;50.102;18.982;2022-12-07T03:00:05;27.63;;;23.30;;
59089;SDS011;44878;50.102;18.982;2022-12-07T03:02:49;28.27;;;24.33;;
59089;SDS011;44878;50.102;18.982;2022-12-07T03:08:15;29.80;;;25.60;;
59089;SDS011;44878;50.102;18.982;2022-12-07T03:11:03;30.53;;;24.90;;
59089;SDS011;44878;50.102;18.982;2022-12-07T03:16:09;32.83;;;27.67;;
59089;SDS011;44878;50.102;18.982;2022-12-07T03:18:55;29.93;;;26.43;;
59089;SDS011;44878;50.102;18.982;2022-12-07T03:21:26;28.73;;;24.73;;
59089;SDS011;44878;50.102;18.982;2022-12-07T03:23:57;30.83;;;25.53;;
59089;SDS011;44878;50.102;18.982;2022-12-07T03:26:34;27.43;;;23.37;;
59089;SDS011;44878;50.102;18.982;2022-12-07T03:29:09;28.57;;;24.97;;
59089;SDS011;44878;50.102;18.982;2022-12-07T03:31:45;25.88;;;23.00;;
59089;SDS011;44878;50.102;18.982;2022-12-07T03:34:22;27.53;;;23.40;;
59089;SDS011;44878;50.102;18.982;2022-12-07T03:36:57;27.87;;;23.47;;
59089;SDS011;44878;50.102;18.982;2022-12-07T03:39:31;25.63;;;22.53;;
59089;SDS011;44878;50.102;18.982;2022-12-07T03:42:02;24.07;;;20.47;;
59089;SDS011;44878;50.102;18.982;2022-12-07T03:44:31;26.03;;;21.33;;
59089;SDS011;44878;50.102;18.982;2022-12-07T03:47:01;24.80;;;21.53;;
59089;SDS011;44878;50.102;18.982;2022-12-07T03:49:31;23.17;;;19.87;;
59089;SDS011;44878;50.102;18.982;2022-12-07T03:57:37;24.03;;;20.10;;
59089;SDS011;44878;50.102;18.982;2022-12-07T04:00:07;23.13;;;19.47;;
59089;SDS011;44878;50.102;18.982;2022-12-07T04:02:35;22.47;;;19.80;;
59089;SDS011;44878;50.102;18.982;2022-12-07T04:05:02;22.80;;;20.23;;
59089;SDS011;44878;50.102;18.982;2022-12-07T04:07:29;23.17;;;19.23;;
59089;SDS011;44878;50.102;18.982;2022-12-07T04:09:55;24.40;;;20.40;;
59089;SDS011;44878;50.102;18.982;2022-12-07T04:12:21;22.77;;;20.20;;
59089;SDS011;44878;50.102;18.982;2022-12-07T04:14:48;22.97;;;20.33;;
59089;SDS011;44878;50.102;18.982;2022-12-07T04:17:14;21.07;;;18.30;;
59089;SDS011;44878;50.102;18.982;2022-12-07T04:19:40;22.10;;;18.20;;
59089;SDS011;44878;50.102;18.982;2022-12-07T04:22:09;25.20;;;20.27;;
59089;SDS011;44878;50.102;18.982;2022-12-07T04:24:35;21.50;;;17.87;;
59089;SDS011;44878;50.102;18.982;2022-12-07T04:27:01;20.73;;;16.30;;
59089;SDS011;44878;50.102;18.982;2022-12-07T04:29:27;21.73;;;17.33;;
59089;SDS011;44878;50.102;18.982;2022-12-07T04:31:54;22.47;;;18.67;;
59089;SDS011;44878;50.102;18.982;2022-12-07T04:34:20;20.97;;;17.57;;
59089;SDS011;44878;50.102;18.982;2022-12-07T04:36:46;19.77;;;17.00;;
59089;SDS011;44878;50.102;18.982;2022-12-07T04:39:18;22.08;;;18.10;;
59089;SDS011;44878;50.102;18.982;2022-12-07T04:41:44;24.40;;;18.57;;
59089;SDS011;44878;50.102;18.982;2022-12-07T04:44:10;21.27;;;18.37;;
59089;SDS011;44878;50.102;18.982;2022-12-07T04:46:40;22.40;;;18.27;;
59089;SDS011;44878;50.102;18.982;2022-12-07T04:49:08;23.20;;;18.40;;
59089;SDS011;44878;50.102;18.982;2022-12-07T04:51:35;20.43;;;17.53;;
59089;SDS011;44878;50.102;18.982;2022-12-07T04:54:02;21.00;;;18.73;;
59089;SDS011;44878;50.102;18.982;2022-12-07T04:56:28;21.13;;;16.87;;
59089;SDS011;44878;50.102;18.982;2022-12-07T04:58:57;20.30;;;17.80;;
59089;SDS011;44878;50.102;18.982;2022-12-07T05:01:23;20.43;;;16.50;;
59089;SDS011;44878;50.102;18.982;2022-12-07T05:03:50;20.37;;;16.13;;
59089;SDS011;44878;50.102;18.982;2022-12-07T05:06:19;20.23;;;15.73;;
59089;SDS011;44878;50.102;18.982;2022-12-07T05:08:45;21.93;;;17.83;;
59089;SDS011;44878;50.102;18.982;2022-12-07T05:11:12;20.27;;;17.10;;
59089;SDS011;44878;50.102;18.982;2022-12-07T05:13:57;20.97;;;16.70;;
59089;SDS011;44878;50.102;18.982;2022-12-07T05:16:23;21.10;;;17.27;;
59089;SDS011;44878;50.102;18.982;2022-12-07T05:18:49;18.67;;;16.23;;
59089;SDS011;44878;50.102;18.982;2022-12-07T05:21:15;21.30;;;17.53;;
59089;SDS011;44878;50.102;18.982;2022-12-07T05:23:41;23.80;;;17.13;;
59089;SDS011;44878;50.102;18.982;2022-12-07T05:26:10;21.30;;;16.70;;
59089;SDS011;44878;50.102;18.982;2022-12-07T05:28:36;23.33;;;16.83;;
59089;SDS011;44878;50.102;18.982;2022-12-07T05:31:03;22.53;;;17.37;;
59089;SDS011;44878;50.102;18.982;2022-12-07T05:33:29;21.67;;;17.23;;
59089;SDS011;44878;50.102;18.982;2022-12-07T05:35:55;23.10;;;19.60;;
59089;SDS011;44878;50.102;18.982;2022-12-07T05:38:21;23.07;;;16.67;;
59089;SDS011;44878;50.102;18.982;2022-12-07T05:40:47;25.37;;;18.53;;
59089;SDS011;44878;50.102;18.982;2022-12-07T05:43:13;23.27;;;18.50;;
59089;SDS011;44878;50.102;18.982;2022-12-07T05:45:39;21.90;;;18.23;;
59089;SDS011;44878;50.102;18.982;2022-12-07T05:48:05;23.07;;;17.60;;
59089;SDS011;44878;50.102;18.982;2022-12-07T05:50:31;25.13;;;19.13;;
59089;SDS011;44878;50.102;18.982;2022-12-07T05:52:57;22.57;;;17.50;;
59089;SDS011;44878;50.102;18.982;2022-12-07T05:55:23;18.73;;;15.33;;
59089;SDS011;44878;50.102;18.982;2022-12-07T05:57:49;21.80;;;16.77;;
59089;SDS011;44878;50.102;18.982;2022-12-07T06:00:34;24.30;;;18.50;;
59089;SDS011;44878;50.102;18.982;2022-12-07T06:03:00;20.97;;;15.83;;
59089;SDS011;44878;50.102;18.982;2022-12-07T06:05:29;18.00;;;15.07;;
59089;SDS011;44878;50.102;18.982;2022-12-07T06:07:55;18.57;;;15.10;;
59089;SDS011;44878;50.102;18.982;2022-12-07T06:10:21;19.70;;;16.27;;
59089;SDS011;44878;50.102;18.982;2022-12-07T06:12:47;18.23;;;15.33;;
59089;SDS011;44878;50.102;18.982;2022-12-07T06:15:14;15.80;;;12.67;;
59089;SDS011;44878;50.102;18.982;2022-12-07T06:17:39;16.87;;;13.50;;
59089;SDS011;44878;50.102;18.982;2022-12-07T06:20:06;14.70;;;12.40;;
59089;SDS011;44878;50.102;18.982;2022-12-07T06:22:32;16.90;;;13.17;;
59089;SDS011;44878;50.102;18.982;2022-12-07T06:25:00;16.13;;;12.70;;
59089;SDS011;44878;50.102;18.982;2022-12-07T06:27:29;15.57;;;12.77;;
59089;SDS011;44878;50.102;18.982;2022-12-07T06:29:55;15.33;;;12.73;;
59089;SDS011;44878;50.102;18.982;2022-12-07T06:32:21;15.57;;;13.57;;
59089;SDS011;44878;50.102;18.982;2022-12-07T06:34:47;14.53;;;12.90;;
59089;SDS011;44878;50.102;18.982;2022-12-07T06:37:13;15.63;;;13.23;;
59089;SDS011;44878;50.102;18.982;2022-12-07T06:39:42;15.80;;;13.73;;
59089;SDS011;44878;50.102;18.982;2022-12-07T06:42:08;15.37;;;12.67;;
59089;SDS011;44878;50.102;18.982;2022-12-07T06:44:34;14.77;;;12.40;;
59089;SDS011;44878;50.102;18.982;2022-12-07T06:47:00;15.13;;;12.63;;
59089;SDS011;44878;50.102;18.982;2022-12-07T06:49:27;15.65;;;13.35;;
59089;SDS011;44878;50.102;18.982;2022-12-07T06:51:53;15.60;;;13.20;;
59089;SDS011;44878;50.102;18.982;2022-12-07T06:54:19;18.67;;;15.63;;
59089;SDS011;44878;50.102;18.982;2022-12-07T06:56:45;17.43;;;15.27;;
59089;SDS011;44878;50.102;18.982;2022-12-07T06:59:11;19.43;;;15.83;;
59089;SDS011;44878;50.102;18.982;2022-12-07T07:01:41;18.97;;;15.13;;
59089;SDS011;44878;50.102;18.982;2022-12-07T07:04:10;19.23;;;16.33;;
59089;SDS011;44878;50.102;18.982;2022-12-07T07:06:36;20.87;;;17.40;;
59089;SDS011;44878;50.102;18.982;2022-12-07T07:09:02;21.80;;;17.63;;
59089;SDS011;44878;50.102;18.982;2022-12-07T07:11:28;20.70;;;18.50;;
59089;SDS011;44878;50.102;18.982;2022-12-07T07:13:54;21.00;;;18.53;;
59089;SDS011;44878;50.102;18.982;2022-12-07T07:16:22;18.75;;;16.05;;
59089;SDS011;44878;50.102;18.982;2022-12-07T07:18:49;23.40;;;17.55;;
59089;SDS011;44878;50.102;18.982;2022-12-07T07:21:15;21.30;;;18.00;;
59089;SDS011;44878;50.102;18.982;2022-12-07T07:23:41;21.27;;;18.07;;
59089;SDS011;44878;50.102;18.982;2022-12-07T07:26:07;23.13;;;17.83;;
59089;SDS011;44878;50.102;18.982;2022-12-07T07:28:33;23.23;;;19.00;;
59089;SDS011;44878;50.102;18.982;2022-12-07T07:30:59;23.07;;;18.17;;
59089;SDS011;44878;50.102;18.982;2022-12-07T07:33:25;20.23;;;16.43;;
59089;SDS011;44878;50.102;18.982;2022-12-07T07:35:51;21.47;;;19.13;;
59089;SDS011;44878;50.102;18.982;2022-12-07T07:38:17;23.00;;;19.47;;
59089;SDS011;44878;50.102;18.982;2022-12-07T07:40:44;21.07;;;17.23;;
59089;SDS011;44878;50.102;18.982;2022-12-07T07:43:18;20.43;;;17.13;;
59089;SDS011;44878;50.102;18.982;2022-12-07T07:45:44;21.07;;;16.87;;
59089;SDS011;44878;50.102;18.982;2022-12-07T07:48:11;18.83;;;15.13;;
59089;SDS011;44878;50.102;18.982;2022-12-07T07:50:36;17.87;;;14.73;;
59089;SDS011;44878;50.102;18.982;2022-12-07T07:53:03;17.00;;;14.30;;
59089;SDS011;44878;50.102;18.982;2022-12-07T07:55:29;20.00;;;15.97;;
59089;SDS011;44878;50.102;18.982;2022-12-07T07:57:55;19.87;;;14.63;;
59089;SDS011;44878;50.102;18.982;2022-12-07T08:00:21;19.13;;;14.23;;
59089;SDS011;44878;50.102;18.982;2022-12-07T08:02:47;19.10;;;15.73;;
59089;SDS011;44878;50.102;18.982;2022-12-07T08:05:13;16.97;;;14.27;;
59089;SDS011;44878;50.102;18.982;2022-12-07T08:10:07;17.47;;;14.07;;
59089;SDS011;44878;50.102;18.982;2022-12-07T08:12:40;17.43;;;14.67;;
59089;SDS011;44878;50.102;18.982;2022-12-07T08:15:29;28.97;;;21.67;;
59089;SDS011;44878;50.102;18.982;2022-12-07T08:17:59;17.03;;;14.50;;
59089;SDS011;44878;50.102;18.982;2022-12-07T08:20:25;17.30;;;14.53;;
59089;SDS011;44878;50.102;18.982;2022-12-07T08:22:52;18.63;;;13.63;;
59089;SDS011;44878;50.102;18.982;2022-12-07T08:25:17;17.43;;;13.20;;
59089;SDS011;44878;50.102;18.982;2022-12-07T08:27:44;16.97;;;12.57;;
59089;SDS011;44878;50.102;18.982;2022-12-07T08:30:10;14.20;;;12.47;;
59089;SDS011;44878;50.102;18.982;2022-12-07T08:32:36;14.83;;;13.30;;
59089;SDS011;44878;50.102;18.982;2022-12-07T08:35:02;15.43;;;12.37;;
59089;SDS011;44878;50.102;18.982;2022-12-07T08:37:28;15.70;;;12.17;;
59089;SDS011;44878;50.102;18.982;2022-12-07T08:39:54;14.77;;;11.90;;
59089;SDS011;44878;50.102;18.982;2022-12-07T08:42:20;14.13;;;11.73;;
59089;SDS011;44878;50.102;18.982;2022-12-07T08:44:48;14.68;;;11.70;;
59089;SDS011;44878;50.102;18.982;2022-12-07T08:47:14;14.70;;;11.00;;
59089;SDS011;44878;50.102;18.982;2022-12-07T08:49:41;53.30;;;31.50;;
59089;SDS011;44878;50.102;18.982;2022-12-07T08:52:10;17.13;;;13.40;;
59089;SDS011;44878;50.102;18.982;2022-12-07T08:54:36;16.13;;;13.10;;
59089;SDS011;44878;50.102;18.982;2022-12-07T08:57:05;14.57;;;12.00;;
59089;SDS011;44878;50.102;18.982;2022-12-07T08:59:32;16.03;;;12.83;;
59089;SDS011;44878;50.102;18.982;2022-12-07T09:02:01;16.43;;;13.10;;
59089;SDS011;44878;50.102;18.982;2022-12-07T09:04:27;19.40;;;14.33;;
59089;SDS011;44878;50.102;18.982;2022-12-07T09:06:54;19.20;;;15.37;;
59089;SDS011;44878;50.102;18.982;2022-12-07T09:09:20;21.40;;;17.23;;
59089;SDS011;44878;50.102;18.982;2022-12-07T09:11:49;21.83;;;17.80;;
59089;SDS011;44878;50.102;18.982;2022-12-07T09:14:15;20.93;;;16.17;;
59089;SDS011;44878;50.102;18.982;2022-12-07T09:16:42;23.95;;;16.80;;
59089;SDS011;44878;50.102;18.982;2022-12-07T09:19:09;20.80;;;17.13;;
59089;SDS011;44878;50.102;18.982;2022-12-07T09:21:41;19.60;;;15.30;;
59089;SDS011;44878;50.102;18.982;2022-12-07T09:24:07;22.13;;;16.23;;
59089;SDS011;44878;50.102;18.982;2022-12-07T09:26:34;21.60;;;17.38;;
59089;SDS011;44878;50.102;18.982;2022-12-07T09:29:01;41.30;;;27.60;;
59089;SDS011;44878;50.102;18.982;2022-12-07T09:31:31;20.67;;;16.97;;
59089;SDS011;44878;50.102;18.982;2022-12-07T09:33:58;21.17;;;16.13;;
59089;SDS011;44878;50.102;18.982;2022-12-07T09:36:26;19.30;;;15.33;;
59089;SDS011;44878;50.102;18.982;2022-12-07T09:38:52;21.80;;;15.27;;
59089;SDS011;44878;50.102;18.982;2022-12-07T09:41:22;20.80;;;16.83;;
59089;SDS011;44878;50.102;18.982;2022-12-07T09:43:49;19.23;;;14.40;;
59089;SDS011;44878;50.102;18.982;2022-12-07T09:46:16;16.47;;;12.87;;
59089;SDS011;44878;50.102;18.982;2022-12-07T09:48:44;23.03;;;14.60;;
59089;SDS011;44878;50.102;18.982;2022-12-07T09:51:22;17.90;;;14.38;;
59089;SDS011;44878;50.102;18.982;2022-12-07T09:53:49;15.60;;;13.07;;
59089;SDS011;44878;50.102;18.982;2022-12-07T09:56:18;15.87;;;13.90;;
59089;SDS011;44878;50.102;18.982;2022-12-07T09:58:45;15.90;;;12.75;;
59089;SDS011;44878;50.102;18.982;2022-12-07T10:01:20;17.10;;;13.13;;
59089;SDS011;44878;50.102;18.982;2022-12-07T10:03:51;18.50;;;13.97;;
59089;SDS011;44878;50.102;18.982;2022-12-07T10:06:20;15.00;;;12.57;;
59089;SDS011;44878;50.102;18.982;2022-12-07T10:08:46;14.80;;;12.23;;
59089;SDS011;44878;50.102;18.982;2022-12-07T10:11:19;15.83;;;13.07;;
59089;SDS011;44878;50.102;18.982;2022-12-07T10:18:53;14.67;;;11.97;;
59089;SDS011;44878;50.102;18.982;2022-12-07T10:21:21;16.17;;;13.00;;
59089;SDS011;44878;50.102;18.982;2022-12-07T10:24:02;15.00;;;11.97;;
59089;SDS011;44878;50.102;18.982;2022-12-07T10:34:39;10.50;;;8.80;;
59089;SDS011;44878;50.102;18.982;2022-12-07T10:40:10;11.10;;;8.80;;
59089;SDS011;44878;50.102;18.982;2022-12-07T10:42:31;10.63;;;7.97;;
59089;SDS011;44878;50.102;18.982;2022-12-07T10:45:08;12.67;;;9.00;;
59089;SDS011;44878;50.102;18.982;2022-12-07T10:55:48;10.80;;;7.97;;
59089;SDS011;44878;50.102;18.982;2022-12-07T11:06:55;8.70;;;6.73;;
59089;SDS011;44878;50.102;18.982;2022-12-07T11:12:38;10.38;;;7.07;;
59089;SDS011;44878;50.102;18.982;2022-12-07T11:15:17;8.93;;;7.17;;
59089;SDS011;44878;50.102;18.982;2022-12-07T11:20:40;8.63;;;7.53;;
59089;SDS011;44878;50.102;18.982;2022-12-07T11:31:29;10.70;;;7.93;;
59089;SDS011;44878;50.102;18.982;2022-12-07T11:37:19;9.00;;;7.60;;
59089;SDS011;44878;50.102;18.982;2022-12-07T11:39:50;9.80;;;6.87;;
59089;SDS011;44878;50.102;18.982;2022-12-07T11:42:27;10.00;;;6.80;;
59089;SDS011;44878;50.102;18.982;2022-12-07T11:47:58;9.90;;;7.63;;
59089;SDS011;44878;50.102;18.982;2022-12-07T11:50:34;9.50;;;8.20;;
59089;SDS011;44878;50.102;18.982;2022-12-07T11:56:03;8.27;;;7.10;;
59089;SDS011;44878;50.102;18.982;2022-12-07T12:03:52;8.70;;;6.37;;
59089;SDS011;44878;50.102;18.982;2022-12-07T12:06:23;8.00;;;6.47;;
59089;SDS011;44878;50.102;18.982;2022-12-07T12:09:01;7.00;;;6.10;;
59089;SDS011;44878;50.102;18.982;2022-12-07T12:25:42;8.43;;;6.17;;
59089;SDS011;44878;50.102;18.982;2022-12-07T12:31:05;7.63;;;6.28;;
59089;SDS011;44878;50.102;18.982;2022-12-07T12:33:47;8.40;;;6.53;;
59089;SDS011;44878;50.102;18.982;2022-12-07T12:46:47;8.40;;;6.57;;
59089;SDS011;44878;50.102;18.982;2022-12-07T12:49:32;7.47;;;6.60;;
59089;SDS011;44878;50.102;18.982;2022-12-07T12:57:34;6.73;;;5.50;;
59089;SDS011;44878;50.102;18.982;2022-12-07T13:00:21;8.30;;;6.88;;
59089;SDS011;44878;50.102;18.982;2022-12-07T13:02:56;8.40;;;6.32;;
59089;SDS011;44878;50.102;18.982;2022-12-07T13:05:30;7.50;;;6.47;;
59089;SDS011;44878;50.102;18.982;2022-12-07T13:07:58;7.33;;;6.47;;
59089;SDS011;44878;50.102;18.982;2022-12-07T13:13:05;8.13;;;6.90;;
59089;SDS011;44878;50.102;18.982;2022-12-07T13:15:48;8.02;;;5.80;;
59089;SDS011;44878;50.102;18.982;2022-12-07T13:26:13;6.93;;;5.43;;
59089;SDS011;44878;50.102;18.982;2022-12-07T13:28:58;7.57;;;5.97;;
59089;SDS011;44878;50.102;18.982;2022-12-07T13:31:43;8.47;;;6.27;;
59089;SDS011;44878;50.102;18.982;2022-12-07T13:36:54;9.97;;;6.63;;
59089;SDS011;44878;50.102;18.982;2022-12-07T13:39:22;44.60;;;26.58;;
59089;SDS011;44878;50.102;18.982;2022-12-07T13:41:51;9.17;;;7.07;;
59089;SDS011;44878;50.102;18.982;2022-12-07T13:44:18;9.13;;;7.50;;
59089;SDS011;44878;50.102;18.982;2022-12-07T13:49:30;8.80;;;6.77;;
59089;SDS011;44878;50.102;18.982;2022-12-07T13:52:13;8.13;;;6.10;;
59089;SDS011;44878;50.102;18.982;2022-12-07T13:55:24;8.27;;;6.43;;
59089;SDS011;44878;50.102;18.982;2022-12-07T13:57:31;10.67;;;6.10;;
59089;SDS011;44878;50.102;18.982;2022-12-07T14:00:01;7.70;;;5.97;;
59089;SDS011;44878;50.102;18.982;2022-12-07T14:02:34;7.20;;;6.07;;
59089;SDS011;44878;50.102;18.982;2022-12-07T14:05:15;7.27;;;5.67;;
59089;SDS011;44878;50.102;18.982;2022-12-07T14:07:57;7.93;;;5.67;;
59089;SDS011;44878;50.102;18.982;2022-12-07T14:10:32;7.20;;;6.27;;
59089;SDS011;44878;50.102;18.982;2022-12-07T14:13:01;7.87;;;5.50;;
59089;SDS011;44878;50.102;18.982;2022-12-07T14:15:33;6.83;;;5.30;;
59089;SDS011;44878;50.102;18.982;2022-12-07T14:18:01;7.07;;;5.37;;
59089;SDS011;44878;50.102;18.982;2022-12-07T14:20:39;6.27;;;5.20;;
59089;SDS011;44878;50.102;18.982;2022-12-07T14:23:21;24.23;;;19.33;;
59089;SDS011;44878;50.102;18.982;2022-12-07T14:25:51;16.77;;;11.67;;
59089;SDS011;44878;50.102;18.982;2022-12-07T14:28:51;6.53;;;5.50;;
59089;SDS011;44878;50.102;18.982;2022-12-07T14:31:18;7.37;;;6.27;;
59089;SDS011;44878;50.102;18.982;2022-12-07T14:33:47;7.40;;;5.73;;
59089;SDS011;44878;50.102;18.982;2022-12-07T14:36:14;7.97;;;6.33;;
59089;SDS011;44878;50.102;18.982;2022-12-07T14:38:40;9.10;;;6.70;;
59089;SDS011;44878;50.102;18.982;2022-12-07T14:41:12;7.23;;;5.93;;
59089;SDS011;44878;50.102;18.982;2022-12-07T14:44:00;7.43;;;5.93;;
59089;SDS011;44878;50.102;18.982;2022-12-07T14:46:26;7.50;;;6.63;;
59089;SDS011;44878;50.102;18.982;2022-12-07T14:48:52;8.27;;;5.73;;
59089;SDS011;44878;50.102;18.982;2022-12-07T14:51:18;9.27;;;6.47;;
59089;SDS011;44878;50.102;18.982;2022-12-07T14:53:48;8.27;;;6.17;;
59089;SDS011;44878;50.102;18.982;2022-12-07T14:56:16;8.33;;;6.30;;
59089;SDS011;44878;50.102;18.982;2022-12-07T14:58:42;12.27;;;6.57;;
59089;SDS011;44878;50.102;18.982;2022-12-07T15:01:08;8.53;;;6.77;;
59089;SDS011;44878;50.102;18.982;2022-12-07T15:03:34;8.03;;;6.27;;
59089;SDS011;44878;50.102;18.982;2022-12-07T15:06:03;10.13;;;6.10;;
59089;SDS011;44878;50.102;18.982;2022-12-07T15:08:30;8.07;;;6.15;;
59089;SDS011;44878;50.102;18.982;2022-12-07T15:10:56;6.80;;;5.67;;
59089;SDS011;44878;50.102;18.982;2022-12-07T15:13:22;8.67;;;6.40;;
59089;SDS011;44878;50.102;18.982;2022-12-07T15:16:13;8.43;;;6.30;;
59089;SDS011;44878;50.102;18.982;2022-12-07T15:18:44;8.73;;;6.30;;
59089;SDS011;44878;50.102;18.982;2022-12-07T15:21:14;9.83;;;6.53;;
59089;SDS011;44878;50.102;18.982;2022-12-07T15:23:40;9.47;;;6.20;;
59089;SDS011;44878;50.102;18.982;2022-12-07T15:26:10;21.70;;;13.30;;
59089;SDS011;44878;50.102;18.982;2022-12-07T15:28:36;11.90;;;7.77;;
59089;SDS011;44878;50.102;18.982;2022-12-07T15:31:03;8.80;;;6.53;;
59089;SDS011;44878;50.102;18.982;2022-12-07T15:33:31;8.47;;;6.17;;
59089;SDS011;44878;50.102;18.982;2022-12-07T15:35:58;9.43;;;6.33;;
59089;SDS011;44878;50.102;18.982;2022-12-07T15:38:24;9.70;;;6.53;;
59089;SDS011;44878;50.102;18.982;2022-12-07T15:40:52;6.83;;;5.37;;
59089;SDS011;44878;50.102;18.982;2022-12-07T15:43:18;11.20;;;6.83;;
59089;SDS011;44878;50.102;18.982;2022-12-07T15:46:03;10.10;;;6.47;;
59089;SDS011;44878;50.102;18.982;2022-12-07T15:48:31;9.93;;;7.03;;
59089;SDS011;44878;50.102;18.982;2022-12-07T15:51:03;9.43;;;6.90;;
59089;SDS011;44878;50.102;18.982;2022-12-07T15:53:31;10.30;;;7.27;;
59089;SDS011;44878;50.102;18.982;2022-12-07T15:55:57;9.73;;;6.70;;
59089;SDS011;44878;50.102;18.982;2022-12-07T15:58:23;9.33;;;6.80;;
59089;SDS011;44878;50.102;18.982;2022-12-07T16:00:49;9.33;;;7.03;;
59089;SDS011;44878;50.102;18.982;2022-12-07T16:03:16;10.97;;;7.00;;
59089;SDS011;44878;50.102;18.982;2022-12-07T16:05:48;11.20;;;7.33;;
59089;SDS011;44878;50.102;18.982;2022-12-07T16:08:14;10.67;;;6.93;;
59089;SDS011;44878;50.102;18.982;2022-12-07T16:10:41;10.30;;;7.53;;
59089;SDS011;44878;50.102;18.982;2022-12-07T16:13:11;9.27;;;6.90;;
59089;SDS011;44878;50.102;18.982;2022-12-07T16:15:39;10.40;;;7.10;;
59089;SDS011;44878;50.102;18.982;2022-12-07T16:18:06;10.83;;;7.87;;
59089;SDS011;44878;50.102;18.982;2022-12-07T16:20:32;9.97;;;7.93;;
59089;SDS011;44878;50.102;18.982;2022-12-07T16:22:58;10.90;;;8.33;;
59089;SDS011;44878;50.102;18.982;2022-12-07T16:25:24;11.33;;;8.40;;
59089;SDS011;44878;50.102;18.982;2022-12-07T16:27:51;11.40;;;8.40;;
59089;SDS011;44878;50.102;18.982;2022-12-07T16:30:18;13.20;;;9.10;;
59089;SDS011;44878;50.102;18.982;2022-12-07T16:32:44;10.93;;;8.27;;
59089;SDS011;44878;50.102;18.982;2022-12-07T16:35:10;13.30;;;8.27;;
59089;SDS011;44878;50.102;18.982;2022-12-07T16:37:38;12.70;;;9.02;;
59089;SDS011;44878;50.102;18.982;2022-12-07T16:40:07;12.60;;;8.50;;
59089;SDS011;44878;50.102;18.982;2022-12-07T16:42:35;12.63;;;8.53;;
59089;SDS011;44878;50.102;18.982;2022-12-07T16:45:02;11.45;;;8.52;;
59089;SDS011;44878;50.102;18.982;2022-12-07T16:47:29;11.40;;;8.23;;
59089;SDS011;44878;50.102;18.982;2022-12-07T16:49:55;13.20;;;9.13;;